Time;durP1;ratioP1;P1;durP2;ratioP2;P2;SDS_P1;SDS_P2;PMS_P1;PMS_P2;Temp;Humidity;BMP_temperature;BMP_pressure;BME280_temperature;BME280_humidity;BME280_pressure;Samples;Min_cycle;Max_cycle;Signal;HPM_P1;HPM_P2
2022/04/07 00:00:53;;;;;;;42.10;28.35;;;11.30;98.50;;;;;;5041775;28;20021;-73
2022/04/07 00:03:19;;;;;;;38.80;28.50;;;11.30;98.50;;;;;;5049991;28;20111;-73
2022/04/07 00:05:45;;;;;;;42.25;27.95;;;11.20;98.40;;;;;;5047156;28;20079;-72
2022/04/07 00:08:11;;;;;;;43.63;27.85;;;11.10;98.60;;;;;;5045316;28;20070;-73
2022/04/07 00:10:36;;;;;;;44.35;28.17;;;11.20;98.80;;;;;;5044796;28;20039;-73
2022/04/07 00:13:03;;;;;;;44.22;29.15;;;11.20;99.30;;;;;;5049304;28;20120;-73
2022/04/07 00:15:29;;;;;;;45.45;29.88;;;11.20;99.50;;;;;;5042317;28;20086;-73
2022/04/07 00:17:55;;;;;;;44.53;27.85;;;11.20;99.00;;;;;;5051000;28;20025;-73
2022/04/07 00:20:21;;;;;;;42.88;29.17;;;11.30;98.80;;;;;;5044076;28;20404;-73
2022/04/07 00:22:48;;;;;;;38.03;28.13;;;11.20;98.90;;;;;;5049320;28;20104;-73
2022/04/07 00:25:13;;;;;;;40.63;25.27;;;11.20;99.40;;;;;;5046107;28;20021;-73
2022/04/07 00:27:39;;;;;;;41.22;26.35;;;11.10;99.60;;;;;;5050642;28;20077;-73
2022/04/07 00:30:06;;;;;;;43.30;26.83;;;11.10;99.00;;;;;;5047027;28;20025;-73
2022/04/07 00:32:32;;;;;;;39.20;25.88;;;11.10;99.10;;;;;;5045175;28;20037;-73
2022/04/07 00:34:57;;;;;;;33.70;24.13;;;11.10;98.80;;;;;;5039810;28;20052;-73
2022/04/07 00:37:24;;;;;;;35.97;24.30;;;11.10;99.00;;;;;;5046820;28;20036;-73
2022/04/07 00:39:50;;;;;;;40.00;24.23;;;11.10;99.40;;;;;;5044169;28;20033;-73
2022/04/07 00:42:16;;;;;;;36.97;25.38;;;11.10;99.40;;;;;;5043882;28;20040;-73
2022/04/07 00:44:43;;;;;;;36.22;24.70;;;11.10;99.60;;;;;;5043493;28;20067;-73
2022/04/07 00:47:10;;;;;;;37.30;24.05;;;11.10;99.60;;;;;;5050702;28;20069;-73
2022/04/07 00:49:35;;;;;;;33.35;24.02;;;11.10;99.80;;;;;;5047704;28;20112;-73
2022/04/07 00:52:01;;;;;;;35.65;24.92;;;11.00;99.90;;;;;;5044438;28;20120;-73
2022/04/07 00:54:28;;;;;;;38.40;25.52;;;10.90;99.90;;;;;;5043527;28;21890;-73
2022/04/07 00:56:59;;;;;;;42.20;25.75;;;10.90;99.90;;;;;;5050361;28;20069;-73
2022/04/07 00:59:25;;;;;;;38.03;23.90;;;11.00;99.80;;;;;;5041673;28;20083;-73
2022/04/07 01:01:50;;;;;;;37.33;24.15;;;11.00;99.10;;;;;;5044555;28;20052;-73
2022/04/07 01:04:16;;;;;;;39.55;24.92;;;11.00;99.10;;;;;;5048392;28;20071;-73
2022/04/07 01:06:42;;;;;;;36.15;25.08;;;11.10;99.00;;;;;;5044119;28;20445;-73
2022/04/07 01:09:10;;;;;;;41.58;27.02;;;11.00;98.90;;;;;;5048431;28;20095;-73
2022/04/07 01:11:38;;;;;;;39.15;25.73;;;11.00;98.80;;;;;;5045626;28;20024;-73
2022/04/07 01:14:04;;;;;;;35.10;25.13;;;11.00;99.00;;;;;;5047403;28;20033;-74
2022/04/07 01:16:30;;;;;;;39.35;26.60;;;11.00;98.90;;;;;;5036729;28;20033;-72
2022/04/07 01:18:59;;;;;;;38.22;26.42;;;11.00;99.00;;;;;;5039877;28;20052;-73
2022/04/07 01:21:26;;;;;;;38.15;26.02;;;11.00;99.10;;;;;;5042369;28;20067;-72
2022/04/07 01:24:06;;;;;;;39.53;26.50;;;10.90;99.20;;;;;;5046411;28;20032;-72
2022/04/07 01:26:40;;;;;;;41.88;27.58;;;10.90;99.40;;;;;;5047208;28;20040;-73
2022/04/07 01:29:08;;;;;;;40.03;26.05;;;10.90;99.30;;;;;;5048754;28;20033;-73
2022/04/07 01:31:34;;;;;;;40.80;25.50;;;10.90;99.50;;;;;;5047650;28;20457;-72
2022/04/07 01:34:01;;;;;;;40.15;26.23;;;10.90;99.40;;;;;;5040738;28;20113;-73
2022/04/07 01:36:29;;;;;;;39.58;25.42;;;11.00;99.30;;;;;;5045777;28;20444;-72
2022/04/07 01:38:56;;;;;;;41.25;28.08;;;11.00;99.20;;;;;;5043693;28;20075;-72
2022/04/07 01:41:23;;;;;;;38.85;24.58;;;11.00;99.20;;;;;;5048273;28;20564;-72
2022/04/07 01:43:50;;;;;;;41.78;25.77;;;10.90;99.10;;;;;;5040785;28;20055;-73
2022/04/07 01:46:17;;;;;;;35.88;24.70;;;10.80;99.10;;;;;;5043123;28;20116;-72
2022/04/07 01:48:44;;;;;;;40.13;25.08;;;10.70;99.60;;;;;;5045996;28;20040;-72
2022/04/07 01:51:12;;;;;;;43.80;26.83;;;10.70;99.90;;;;;;5046085;28;20037;-72
2022/04/07 01:53:39;;;;;;;35.42;25.50;;;10.70;99.80;;;;;;5046767;28;20039;-73
2022/04/07 01:56:05;;;;;;;45.05;25.95;;;10.70;99.60;;;;;;5048507;28;20029;-73
2022/04/07 01:58:32;;;;;;;36.53;25.85;;;10.70;99.70;;;;;;5045804;28;20037;-73
2022/04/07 02:00:59;;;;;;;34.85;25.45;;;10.70;99.90;;;;;;5040093;28;20484;-72
2022/04/07 02:03:24;;;;;;;40.78;25.38;;;10.70;99.90;;;;;;5047842;28;20045;-73
2022/04/07 02:05:50;;;;;;;40.08;25.80;;;10.70;99.80;;;;;;5043235;28;20060;-73
2022/04/07 02:08:15;;;;;;;40.50;27.30;;;10.70;99.90;;;;;;5047164;28;20021;-72
2022/04/07 02:10:41;;;;;;;41.38;26.98;;;10.70;99.90;;;;;;5039568;28;20525;-73
2022/04/07 02:13:07;;;;;;;39.85;27.17;;;10.80;99.90;;;;;;5044921;28;20387;-72
2022/04/07 02:15:32;;;;;;;42.88;26.27;;;10.80;99.90;;;;;;5046328;28;20025;-72
2022/04/07 02:17:58;;;;;;;37.28;25.85;;;10.70;99.90;;;;;;5039799;28;20080;-73
2022/04/07 02:20:24;;;;;;;39.47;24.67;;;10.60;99.90;;;;;;5048540;28;20123;-72
2022/04/07 02:22:49;;;;;;;38.72;26.83;;;10.50;99.90;;;;;;5046355;28;20021;-73
2022/04/07 02:25:15;;;;;;;35.88;25.27;;;10.50;99.90;;;;;;5036402;28;20057;-73
2022/04/07 02:27:42;;;;;;;43.15;27.92;;;10.50;99.90;;;;;;5050178;28;20032;-72
2022/04/07 02:30:13;;;;;;;38.75;25.42;;;10.30;99.90;;;;;;5040802;28;20535;-72
2022/04/07 02:32:38;;;;;;;40.05;25.98;;;10.40;99.90;;;;;;5048318;28;20037;-72
2022/04/07 02:35:05;;;;;;;42.47;26.48;;;10.30;99.90;;;;;;5037696;28;20470;-73
2022/04/07 02:37:30;;;;;;;36.70;25.83;;;10.30;99.90;;;;;;5049254;28;20057;-73
2022/04/07 02:39:56;;;;;;;39.72;26.42;;;10.30;99.90;;;;;;5039576;28;21597;-72
2022/04/07 02:42:22;;;;;;;36.20;26.15;;;10.40;99.90;;;;;;5045034;28;20104;-72
2022/04/07 02:44:48;;;;;;;39.05;25.00;;;10.30;99.90;;;;;;5043855;28;20021;-72
2022/04/07 02:47:13;;;;;;;39.08;27.35;;;10.30;99.90;;;;;;5042865;28;20029;-72
2022/04/07 02:49:39;;;;;;;41.15;27.35;;;10.30;99.90;;;;;;5043748;28;20033;-72
2022/04/07 02:52:08;;;;;;;38.40;24.90;;;10.50;99.90;;;;;;5035815;28;20025;-73
2022/04/07 02:54:34;;;;;;;40.58;26.55;;;10.50;99.90;;;;;;5043458;28;20075;-73
2022/04/07 02:57:00;;;;;;;42.00;25.48;;;10.50;99.90;;;;;;5047228;28;20025;-72
2022/04/07 02:59:26;;;;;;;40.55;27.10;;;10.30;99.90;;;;;;5041656;28;20399;-72
2022/04/07 03:01:53;;;;;;;43.83;27.63;;;10.30;99.90;;;;;;5047104;28;20055;-72
2022/04/07 03:04:19;;;;;;;39.47;26.02;;;10.40;99.90;;;;;;5037742;28;20049;-72
2022/04/07 03:06:45;;;;;;;39.22;25.75;;;10.40;99.90;;;;;;5031247;28;20040;-71
2022/04/07 03:09:11;;;;;;;42.42;28.58;;;10.40;99.90;;;;;;5047476;28;20033;-72
2022/04/07 03:11:36;;;;;;;53.35;29.30;;;10.40;99.90;;;;;;5045226;28;20467;-71
2022/04/07 03:14:02;;;;;;;42.53;28.23;;;10.30;99.90;;;;;;5043555;28;20025;-72
2022/04/07 03:16:28;;;;;;;41.30;27.10;;;10.30;99.90;;;;;;5040936;28;20668;-71
2022/04/07 03:18:53;;;;;;;40.20;26.83;;;10.10;99.90;;;;;;5041541;28;20507;-71
2022/04/07 03:21:19;;;;;;;37.80;25.92;;;10.10;99.90;;;;;;5042718;28;20045;-71
2022/04/07 03:23:45;;;;;;;44.28;28.45;;;9.90;99.90;;;;;;5046236;28;20043;-71
2022/04/07 03:26:10;;;;;;;41.95;29.33;;;9.80;99.90;;;;;;5044042;28;20120;-71
2022/04/07 03:28:36;;;;;;;42.60;25.67;;;9.80;99.90;;;;;;5047312;28;20029;-71
2022/04/07 03:31:02;;;;;;;43.65;26.73;;;9.80;99.90;;;;;;5042889;28;20033;-71
2022/04/07 03:33:28;;;;;;;43.80;29.92;;;9.70;99.90;;;;;;5040521;28;20044;-71
2022/04/07 03:35:54;;;;;;;42.47;27.13;;;9.40;99.90;;;;;;5043023;28;20040;-71
2022/04/07 03:38:19;;;;;;;43.47;29.55;;;9.30;99.90;;;;;;5047038;28;20382;-72
2022/04/07 03:40:45;;;;;;;42.85;27.75;;;9.30;99.90;;;;;;5039696;28;20029;-72
2022/04/07 03:43:11;;;;;;;44.08;27.85;;;9.30;99.90;;;;;;5048053;28;20087;-72
2022/04/07 03:45:36;;;;;;;43.20;28.55;;;9.20;99.90;;;;;;5038171;28;20079;-72
2022/04/07 03:48:02;;;;;;;44.05;29.05;;;9.20;99.90;;;;;;5036629;28;20041;-73
2022/04/07 03:50:28;;;;;;;44.22;29.13;;;9.20;99.90;;;;;;5045193;28;20363;-71
2022/04/07 03:52:53;;;;;;;45.70;29.23;;;9.30;99.90;;;;;;5040118;28;20493;-72
2022/04/07 03:55:20;;;;;;;49.70;30.70;;;9.30;99.90;;;;;;5042531;28;20112;-72
2022/04/07 03:57:46;;;;;;;45.10;29.52;;;9.50;99.90;;;;;;5036444;28;20021;-72
2022/04/07 04:00:12;;;;;;;42.35;27.60;;;9.60;99.90;;;;;;5038763;28;20033;-72
2022/04/07 04:02:38;;;;;;;43.38;27.92;;;9.40;99.90;;;;;;5041910;28;20352;-71
2022/04/07 04:05:04;;;;;;;49.70;29.20;;;9.30;99.90;;;;;;5038074;28;20052;-71
2022/04/07 04:07:29;;;;;;;46.33;28.38;;;9.20;99.90;;;;;;5039085;28;20617;-71
2022/04/07 04:09:55;;;;;;;46.70;27.98;;;9.00;99.90;;;;;;5041657;28;20065;-72
2022/04/07 04:12:21;;;;;;;45.95;27.83;;;9.00;99.90;;;;;;5041992;28;20474;-71
2022/04/07 04:14:46;;;;;;;45.10;29.35;;;9.10;99.90;;;;;;5037565;28;20057;-71
2022/04/07 04:17:12;;;;;;;45.33;29.92;;;9.10;99.90;;;;;;5033350;28;20115;-72
2022/04/07 04:19:37;;;;;;;43.75;30.27;;;9.20;99.90;;;;;;5043484;28;20033;-71
2022/04/07 04:22:03;;;;;;;42.40;27.60;;;9.20;99.90;;;;;;5033216;28;20029;-72
2022/04/07 04:24:29;;;;;;;46.13;28.70;;;9.30;99.90;;;;;;5035139;28;20051;-71
2022/04/07 04:26:55;;;;;;;43.97;29.52;;;9.20;99.90;;;;;;5030271;28;20049;-71
2022/04/07 04:29:20;;;;;;;44.00;29.42;;;9.10;99.90;;;;;;5040262;28;20033;-71
2022/04/07 04:31:46;;;;;;;44.85;28.25;;;9.10;99.90;;;;;;5025980;28;20037;-73
2022/04/07 04:34:12;;;;;;;44.97;28.20;;;8.90;99.90;;;;;;5017373;28;20144;-72
2022/04/07 04:36:37;;;;;;;48.63;29.60;;;8.60;99.90;;;;;;5017947;28;20711;-73
2022/04/07 04:39:03;;;;;;;49.45;28.63;;;8.70;99.90;;;;;;5017308;28;20048;-71
2022/04/07 04:41:29;;;;;;;43.45;28.75;;;8.80;99.90;;;;;;5017673;28;20128;-72
2022/04/07 04:43:54;;;;;;;42.40;27.55;;;8.80;99.90;;;;;;5018683;28;20044;-71
2022/04/07 04:46:21;;;;;;;49.58;28.52;;;8.80;99.90;;;;;;5031462;28;20060;-71
2022/04/07 04:48:47;;;;;;;47.65;28.58;;;8.60;99.90;;;;;;5038620;28;20115;-72
2022/04/07 04:51:12;;;;;;;61.72;31.13;;;8.60;99.90;;;;;;5037805;28;20742;-71
2022/04/07 04:53:38;;;;;;;46.15;29.80;;;8.60;99.90;;;;;;5035438;28;20114;-71
2022/04/07 04:56:04;;;;;;;45.17;29.02;;;8.70;99.90;;;;;;5042269;28;20033;-72
2022/04/07 04:58:30;;;;;;;50.55;31.63;;;8.90;99.90;;;;;;5032908;28;20060;-71
2022/04/07 05:00:56;;;;;;;45.65;30.38;;;8.90;99.90;;;;;;5042821;28;20487;-71
2022/04/07 05:03:22;;;;;;;43.90;28.27;;;8.90;99.90;;;;;;5034410;28;20751;-72
2022/04/07 05:05:48;;;;;;;45.67;30.42;;;9.00;99.90;;;;;;5029829;28;20156;-71
2022/04/07 05:08:13;;;;;;;45.80;30.80;;;9.10;99.90;;;;;;5015868;28;20032;-71
2022/04/07 05:10:40;;;;;;;48.33;29.38;;;9.10;99.90;;;;;;5016752;28;20029;-73
2022/04/07 05:13:06;;;;;;;46.97;29.92;;;9.20;99.90;;;;;;5018547;28;20045;-74
2022/04/07 05:15:31;;;;;;;42.55;27.88;;;9.30;99.90;;;;;;5023673;28;20029;-74
2022/04/07 05:17:57;;;;;;;48.88;28.40;;;9.40;99.90;;;;;;5016040;28;20025;-74
2022/04/07 05:20:23;;;;;;;45.17;28.70;;;9.40;99.90;;;;;;5034601;28;20090;-74
2022/04/07 05:22:49;;;;;;;46.15;29.27;;;9.50;99.90;;;;;;5017313;28;20033;-73
2022/04/07 05:25:14;;;;;;;47.78;30.65;;;9.60;99.90;;;;;;5019029;28;20037;-74
2022/04/07 05:27:43;;;;;;;41.22;28.23;;;9.50;99.90;;;;;;5024989;28;20045;-74
2022/04/07 05:30:15;;;;;;;42.17;28.88;;;9.50;99.90;;;;;;5041543;28;20056;-77
2022/04/07 05:32:42;;;;;;;43.67;28.38;;;9.50;99.90;;;;;;5029624;28;20080;-75
2022/04/07 05:35:09;;;;;;;48.20;30.48;;;9.50;99.90;;;;;;5030167;28;20430;-74
2022/04/07 05:37:35;;;;;;;44.30;29.05;;;9.60;99.90;;;;;;5037118;28;20021;-74
2022/04/07 05:40:01;;;;;;;46.85;29.15;;;9.60;99.90;;;;;;5040224;28;20600;-74
2022/04/07 05:42:26;;;;;;;44.08;29.58;;;9.60;99.90;;;;;;5042799;28;20043;-74
2022/04/07 05:44:52;;;;;;;42.80;29.50;;;9.70;99.90;;;;;;5032978;28;20037;-74
2022/04/07 05:47:18;;;;;;;44.40;28.00;;;9.70;99.90;;;;;;5033954;28;20056;-72
2022/04/07 05:49:43;;;;;;;45.80;28.92;;;9.70;99.90;;;;;;5028616;28;20029;-74
2022/04/07 05:52:09;;;;;;;41.65;28.80;;;9.70;99.90;;;;;;5032857;28;20029;-74
2022/04/07 05:54:35;;;;;;;49.20;29.95;;;9.70;99.90;;;;;;5043178;28;20068;-74
2022/04/07 05:57:01;;;;;;;43.88;30.02;;;9.70;99.90;;;;;;5042754;28;20032;-73
2022/04/07 05:59:26;;;;;;;47.15;29.88;;;9.70;99.90;;;;;;5042778;28;20029;-72
2022/04/07 06:01:52;;;;;;;47.20;31.27;;;9.70;99.90;;;;;;5048748;28;20040;-70
2022/04/07 06:04:18;;;;;;;47.10;29.65;;;9.70;99.90;;;;;;5037551;28;20053;-74
2022/04/07 06:06:44;;;;;;;45.88;30.45;;;9.70;99.90;;;;;;5036188;28;20596;-71
2022/04/07 06:09:10;;;;;;;46.95;31.45;;;9.70;99.90;;;;;;5042619;28;20041;-73
2022/04/07 06:11:36;;;;;;;45.83;30.10;;;9.70;99.90;;;;;;5042803;28;20029;-73
2022/04/07 06:14:01;;;;;;;43.90;30.77;;;9.80;99.90;;;;;;5042557;28;20529;-74
2022/04/07 06:16:27;;;;;;;47.92;30.42;;;9.90;99.90;;;;;;5033689;28;20073;-73
2022/04/07 06:18:54;;;;;;;47.55;30.27;;;9.90;99.90;;;;;;5034632;28;20025;-74
2022/04/07 06:21:20;;;;;;;46.03;29.45;;;10.00;99.90;;;;;;5039096;28;20037;-74
2022/04/07 06:23:46;;;;;;;41.17;28.83;;;10.00;99.90;;;;;;5036065;28;20044;-71
2022/04/07 06:26:12;;;;;;;43.05;27.85;;;10.00;99.90;;;;;;5039526;28;20037;-73
2022/04/07 06:28:40;;;;;;;52.83;29.60;;;10.00;99.90;;;;;;5039455;28;20048;-74
2022/04/07 06:31:05;;;;;;;46.92;28.48;;;10.00;99.90;;;;;;5039619;28;20025;-74
2022/04/07 06:33:31;;;;;;;44.17;28.45;;;10.10;99.90;;;;;;5038236;28;20025;-74
2022/04/07 06:35:57;;;;;;;42.97;28.65;;;10.10;99.90;;;;;;5026564;28;20033;-73
2022/04/07 06:38:23;;;;;;;44.65;28.33;;;10.10;99.90;;;;;;5033641;28;20033;-73
2022/04/07 06:40:49;;;;;;;46.55;30.23;;;10.10;99.90;;;;;;5027339;28;20034;-72
2022/04/07 06:43:14;;;;;;;43.40;29.27;;;10.20;99.90;;;;;;5035063;28;20033;-71
2022/04/07 06:45:40;;;;;;;42.08;29.42;;;10.40;99.90;;;;;;5033643;28;20052;-75
2022/04/07 06:48:06;;;;;;;45.67;29.83;;;10.40;99.90;;;;;;5029985;28;20037;-75
2022/04/07 06:50:32;;;;;;;42.75;28.80;;;10.50;99.90;;;;;;5041426;28;20475;-75
2022/04/07 06:52:58;;;;;;;42.08;27.52;;;10.60;99.90;;;;;;5041806;28;20103;-74
2022/04/07 06:55:24;;;;;;;45.63;29.27;;;10.50;99.90;;;;;;5042039;28;20111;-74
2022/04/07 06:57:54;;;;;;;44.90;30.13;;;11.50;99.90;;;;;;5038082;28;20112;-74
2022/04/07 07:00:23;;;;;;;42.30;28.67;;;12.20;98.90;;;;;;5036491;28;20489;-74
2022/04/07 07:02:53;;;;;;;43.58;29.48;;;12.60;98.20;;;;;;5043640;28;20047;-74
2022/04/07 07:05:25;;;;;;;46.97;28.20;;;12.80;97.50;;;;;;5027331;28;21229;-75
2022/04/07 07:07:52;;;;;;;45.45;28.45;;;12.40;98.20;;;;;;5030117;28;20048;-75
2022/04/07 07:10:26;;;;;;;42.42;29.17;;;11.80;98.40;;;;;;5020647;28;20033;-74
2022/04/07 07:12:53;;;;;;;41.47;27.42;;;12.60;98.50;;;;;;5023418;28;20071;-74
2022/04/07 07:15:21;;;;;;;38.53;26.33;;;14.20;95.80;;;;;;5044300;28;20044;-75
2022/04/07 07:17:47;;;;;;;42.95;26.92;;;15.10;94.10;;;;;;5044047;28;20344;-75
2022/04/07 07:20:13;;;;;;;42.72;29.20;;;15.20;93.30;;;;;;5039967;28;20082;-73
2022/04/07 07:22:40;;;;;;;40.03;27.50;;;14.80;93.20;;;;;;5040982;28;20037;-73
2022/04/07 07:25:06;;;;;;;39.88;28.17;;;15.10;93.10;;;;;;5041685;28;20033;-73
2022/04/07 07:27:46;;;;;;;47.33;28.13;;;13.90;94.20;;;;;;5044675;28;20052;-75
2022/04/07 07:30:17;;;;;;;46.45;29.35;;;12.50;96.80;;;;;;5036160;28;20064;-73
2022/04/07 07:32:47;;;;;;;43.00;29.08;;;12.30;97.40;;;;;;5045209;28;20051;-74
2022/04/07 07:35:13;;;;;;;42.38;28.77;;;12.00;97.30;;;;;;5036704;28;20032;-75
2022/04/07 07:37:50;;;;;;;41.90;27.30;;;11.90;98.10;;;;;;5021086;28;20025;-74
2022/04/07 07:40:17;;;;;;;43.35;28.45;;;11.80;98.20;;;;;;5019044;28;20030;-74
2022/04/07 07:42:43;;;;;;;38.92;27.67;;;11.80;98.50;;;;;;5012791;28;20123;-74
2022/04/07 07:45:08;;;;;;;41.90;28.27;;;11.70;98.60;;;;;;5035949;28;20847;-74
2022/04/07 07:47:35;;;;;;;43.08;29.20;;;11.80;98.80;;;;;;5038519;28;20119;-74
2022/04/07 07:50:04;;;;;;;42.58;30.55;;;11.90;98.60;;;;;;5044861;28;20025;-74
2022/04/07 07:52:30;;;;;;;45.00;27.73;;;12.10;98.20;;;;;;5044610;28;20039;-75
2022/04/07 07:54:56;;;;;;;45.95;29.33;;;12.10;98.30;;;;;;5043855;28;20029;-74
2022/04/07 07:57:21;;;;;;;44.63;27.67;;;12.00;97.80;;;;;;5044867;28;20033;-75
2022/04/07 07:59:47;;;;;;;42.85;28.73;;;12.20;98.10;;;;;;5044600;28;20058;-74
2022/04/07 08:02:13;;;;;;;43.17;29.20;;;12.30;98.10;;;;;;5040263;28;20029;-74
2022/04/07 08:04:38;;;;;;;42.35;28.15;;;12.40;98.00;;;;;;5041078;28;20048;-74
2022/04/07 08:07:04;;;;;;;44.75;29.48;;;12.40;98.10;;;;;;5044381;28;20041;-74
2022/04/07 08:09:30;;;;;;;46.90;29.50;;;12.50;97.60;;;;;;5043398;28;20029;-74
2022/04/07 08:11:56;;;;;;;45.13;30.05;;;12.60;97.60;;;;;;5040407;28;20040;-74
2022/04/07 08:14:22;;;;;;;45.97;29.40;;;12.60;97.10;;;;;;5036950;28;20039;-74
2022/04/07 08:16:48;;;;;;;42.13;29.83;;;12.60;96.60;;;;;;5033373;28;20083;-74
2022/04/07 08:19:14;;;;;;;45.35;29.23;;;12.60;96.60;;;;;;5040720;28;20333;-74
2022/04/07 08:21:39;;;;;;;41.00;28.30;;;12.40;97.30;;;;;;5037364;28;20091;-75
2022/04/07 08:24:05;;;;;;;45.95;30.88;;;12.60;96.90;;;;;;5027449;28;20036;-74
2022/04/07 08:26:31;;;;;;;45.08;28.85;;;12.60;96.70;;;;;;5041850;28;20047;-75
2022/04/07 08:28:56;;;;;;;43.50;29.02;;;12.50;96.50;;;;;;5038222;28;20154;-74
2022/04/07 08:31:23;;;;;;;47.20;31.17;;;12.60;96.70;;;;;;5042454;28;20112;-75
2022/04/07 08:33:48;;;;;;;46.30;30.42;;;12.70;96.30;;;;;;5040090;28;20029;-74
2022/04/07 08:36:14;;;;;;;41.80;28.92;;;12.60;96.40;;;;;;5042805;28;20145;-75
2022/04/07 08:38:40;;;;;;;46.47;31.27;;;12.60;96.20;;;;;;5038125;28;20041;-75
2022/04/07 08:41:09;;;;;;;46.63;31.10;;;12.60;96.40;;;;;;5039513;28;20494;-74
2022/04/07 08:43:38;;;;;;;40.80;29.42;;;12.60;96.30;;;;;;5032933;28;20037;-74
2022/04/07 08:46:08;;;;;;;46.90;31.42;;;12.50;96.40;;;;;;5016927;28;20077;-74
2022/04/07 08:48:37;;;;;;;43.38;29.83;;;12.60;96.30;;;;;;5019708;28;20541;-74
2022/04/07 08:51:04;;;;;;;44.33;30.42;;;12.60;96.30;;;;;;5024347;28;20032;-74
2022/04/07 08:53:31;;;;;;;48.42;33.05;;;12.80;97.00;;;;;;5042314;28;20503;-74
2022/04/07 08:55:59;;;;;;;48.58;30.38;;;12.80;96.70;;;;;;5033888;28;20032;-75
2022/04/07 08:58:25;;;;;;;47.75;31.20;;;14.10;95.20;;;;;;5042094;28;20056;-74
2022/04/07 09:00:51;;;;;;;44.13;30.50;;;15.90;92.60;;;;;;5042496;28;20060;-74
2022/04/07 09:03:16;;;;;;;42.17;31.25;;;16.60;92.00;;;;;;5040303;28;20108;-74
2022/04/07 09:05:53;;;;;;;46.58;31.55;;;17.60;91.10;;;;;;5041146;28;20045;-74
2022/04/07 09:08:19;;;;;;;43.50;30.67;;;18.40;89.10;;;;;;5043512;28;20032;-75
2022/04/07 09:10:54;;;;;;;48.15;32.13;;;17.20;90.10;;;;;;5041837;28;20032;-74
2022/04/07 09:13:20;;;;;;;47.30;31.35;;;16.90;91.00;;;;;;5036748;28;20126;-74
2022/04/07 09:15:48;;;;;;;45.78;31.23;;;16.20;91.40;;;;;;5037263;28;20037;-75
2022/04/07 09:18:24;;;;;;;43.92;29.77;;;16.80;91.10;;;;;;5043734;28;20040;-74
2022/04/07 09:20:50;;;;;;;48.70;32.60;;;16.80;91.40;;;;;;5042631;28;20040;-75
2022/04/07 09:23:19;;;;;;;43.80;31.83;;;16.50;91.70;;;;;;5040886;28;20041;-75
2022/04/07 09:25:49;;;;;;;45.20;32.03;;;16.00;91.80;;;;;;5027883;28;20045;-74
2022/04/07 09:28:44;;;;;;;44.83;31.77;;;16.10;91.20;;;;;;5035077;28;20028;-74
2022/04/07 09:31:15;;;;;;;46.58;32.45;;;16.50;91.50;;;;;;5033060;28;20045;-75
2022/04/07 09:33:41;;;;;;;44.78;30.35;;;16.70;90.70;;;;;;5044784;28;20040;-74
2022/04/07 09:36:11;;;;;;;50.60;32.63;;;16.80;90.40;;;;;;5046011;28;20029;-75
2022/04/07 09:38:38;;;;;;;49.35;32.20;;;16.50;90.50;;;;;;5042245;28;20031;-74
2022/04/07 09:41:12;;;;;;;49.40;32.17;;;15.70;91.10;;;;;;5046411;28;20036;-75
2022/04/07 09:43:58;;;;;;;51.03;29.83;;;15.60;91.60;;;;;;5042872;28;20271;-74
2022/04/07 09:46:35;;;;;;;44.55;30.88;;;15.10;91.60;;;;;;5030448;28;20685;-75
2022/04/07 09:49:04;;;;;;;45.45;31.63;;;15.10;92.10;;;;;;5043955;28;20482;-75
2022/04/07 09:51:36;;;;;;;47.95;31.13;;;14.80;92.80;;;;;;5046013;28;20040;-75
2022/04/07 09:54:03;;;;;;;44.13;32.15;;;14.60;93.10;;;;;;5045571;28;20107;-75
2022/04/07 09:56:29;;;;;;;43.80;30.63;;;14.90;92.60;;;;;;5043936;28;20056;-75
2022/04/07 09:58:55;;;;;;;50.13;31.52;;;14.70;92.00;;;;;;5045501;28;20608;-75
2022/04/07 10:01:21;;;;;;;41.42;29.45;;;14.90;92.40;;;;;;5044078;28;20033;-75
2022/04/07 10:03:50;;;;;;;44.63;32.17;;;15.10;92.20;;;;;;5042029;28;20094;-74
2022/04/07 10:06:17;;;;;;;47.80;32.75;;;15.20;91.60;;;;;;5044969;28;20127;-75
2022/04/07 10:08:46;;;;;;;43.13;30.17;;;15.30;92.30;;;;;;5044950;28;20166;-75
2022/04/07 10:11:13;;;;;;;49.15;30.98;;;15.30;91.70;;;;;;5043740;28;20034;-75
2022/04/07 10:13:41;;;;;;;45.72;32.20;;;15.30;91.90;;;;;;5043841;28;20640;-74
2022/04/07 10:16:07;;;;;;;42.15;29.30;;;15.50;92.20;;;;;;5045766;28;20534;-75
2022/04/07 10:18:49;;;;;;;47.28;31.40;;;15.80;91.20;;;;;;5044654;28;20623;-75
2022/04/07 10:21:30;;;;;;;44.67;29.40;;;15.50;91.40;;;;;;5037208;28;20108;-74
2022/04/07 10:24:20;;;;;;;42.45;29.65;;;15.50;91.60;;;;;;5036784;28;20129;-75
2022/04/07 10:26:47;;;;;;;43.38;30.13;;;15.70;91.00;;;;;;5036698;28;20124;-74
2022/04/07 10:29:23;;;;;;;46.03;29.80;;;15.50;91.00;;;;;;5045718;28;20039;-74
2022/04/07 10:32:10;;;;;;;39.35;27.40;;;15.70;90.90;;;;;;5046011;28;20033;-74
2022/04/07 10:34:51;;;;;;;39.50;27.48;;;16.10;90.00;;;;;;5046669;28;20029;-73
2022/04/07 10:37:30;;;;;;;39.78;27.80;;;16.30;90.20;;;;;;5042967;28;20029;-74
2022/04/07 10:39:56;;;;;;;39.88;29.23;;;16.60;89.70;;;;;;5047137;28;20028;-74
2022/04/07 10:43:03;;;;;;;40.30;29.35;;;16.50;89.50;;;;;;5047113;28;20375;-74
2022/04/07 10:45:33;;;;;;;40.30;29.20;;;16.40;90.40;;;;;;5037248;28;20048;-74
2022/04/07 10:48:17;;;;;;;37.13;26.83;;;16.40;90.60;;;;;;5042095;28;20074;-74
2022/04/07 10:50:50;;;;;;;40.00;28.48;;;16.60;90.10;;;;;;5046122;28;20029;-74
2022/04/07 10:53:18;;;;;;;38.58;28.88;;;16.50;89.70;;;;;;5048006;28;20041;-74
2022/04/07 10:55:59;;;;;;;40.58;30.15;;;16.30;89.50;;;;;;5048587;28;20374;-74
2022/04/07 10:58:42;;;;;;;40.38;28.65;;;16.50;90.30;;;;;;5046803;28;20116;-73
2022/04/07 11:01:14;;;;;;;38.38;27.23;;;16.70;90.20;;;;;;5044062;28;20047;-73
2022/04/07 11:03:41;;;;;;;37.28;27.70;;;16.60;88.30;;;;;;5047379;28;20041;-74
2022/04/07 11:06:07;;;;;;;38.60;28.75;;;16.40;88.50;;;;;;5041828;28;20475;-74
2022/04/07 11:08:33;;;;;;;36.50;24.08;;;16.40;88.20;;;;;;5047666;28;20030;-72
2022/04/07 11:10:59;;;;;;;36.22;25.80;;;16.70;90.20;;;;;;5043716;28;20029;-75
2022/04/07 11:13:50;;;;;;;37.00;25.60;;;17.30;88.00;;;;;;5040462;28;20032;-73
2022/04/07 11:16:35;;;;;;;37.67;25.15;;;17.50;88.50;;;;;;5032379;28;20039;-75
2022/04/07 11:19:34;;;;;;;38.40;25.42;;;17.60;86.90;;;;;;5024820;28;20025;-73
2022/04/07 11:22:10;;;;;;;36.83;25.98;;;17.30;88.00;;;;;;5024419;28;20087;-75
2022/04/07 11:24:43;;;;;;;31.77;23.90;;;17.40;89.90;;;;;;5034520;28;20032;-75
2022/04/07 11:27:39;;;;;;;41.60;24.27;;;17.40;86.70;;;;;;5044551;28;20037;-75
2022/04/07 11:30:07;;;;;;;30.88;23.00;;;17.70;86.60;;;;;;5044157;28;20287;-74
2022/04/07 11:32:33;;;;;;;28.95;20.95;;;17.40;87.70;;;;;;5048607;28;20363;-77
2022/04/07 11:35:14;;;;;;;33.38;23.10;;;18.00;86.40;;;;;;5046483;28;20041;-73
2022/04/07 11:37:41;;;;;;;28.27;19.95;;;18.40;86.00;;;;;;5044857;28;20032;-77
2022/04/07 11:40:08;;;;;;;30.17;21.77;;;18.40;85.20;;;;;;5043737;28;20033;-77
2022/04/07 11:42:34;;;;;;;28.27;22.08;;;18.50;87.40;;;;;;5031381;28;20021;-77
2022/04/07 11:45:01;;;;;;;33.75;22.23;;;18.40;84.30;;;;;;5028627;28;20029;-77
2022/04/07 11:47:36;;;;;;;33.83;23.98;;;18.60;85.30;;;;;;5033362;28;20037;-77
2022/04/07 11:50:04;;;;;;;33.70;23.23;;;18.50;86.60;;;;;;5038831;28;20118;-77
2022/04/07 11:52:32;;;;;;;34.78;23.20;;;18.60;86.70;;;;;;5044872;28;20550;-77
2022/04/07 11:55:00;;;;;;;32.55;23.50;;;18.20;86.20;;;;;;5044649;28;20527;-77
2022/04/07 11:57:28;;;;;;;32.95;23.33;;;17.90;86.30;;;;;;5043888;28;20021;-76
2022/04/07 11:59:59;;;;;;;37.30;24.10;;;17.80;86.70;;;;;;5044695;28;20036;-77
2022/04/07 12:02:25;;;;;;;32.78;21.73;;;17.70;87.70;;;;;;5036792;28;20973;-77
2022/04/07 12:05:11;;;;;;;35.42;23.88;;;17.80;85.80;;;;;;5041838;28;20045;-77
2022/04/07 12:07:37;;;;;;;31.80;23.95;;;17.80;87.00;;;;;;5044075;28;20475;-76
2022/04/07 12:10:09;;;;;;;30.25;21.75;;;17.90;87.10;;;;;;5043387;28;20552;-77
2022/04/07 12:12:34;;;;;;;30.52;21.33;;;17.70;86.80;;;;;;5044027;28;20024;-77
2022/04/07 12:15:00;;;;;;;29.85;20.73;;;17.60;87.00;;;;;;5035973;28;20381;-77
2022/04/07 12:17:26;;;;;;;28.90;20.00;;;17.60;86.20;;;;;;5023876;28;20474;-77
2022/04/07 12:19:52;;;;;;;32.83;21.02;;;17.50;86.30;;;;;;5024803;28;20037;-76
2022/04/07 12:22:29;;;;;;;33.22;21.92;;;17.50;86.90;;;;;;5022203;28;20056;-77
2022/04/07 12:25:00;;;;;;;34.33;21.23;;;17.50;87.60;;;;;;5032009;28;20086;-78
2022/04/07 12:27:31;;;;;;;29.23;18.50;;;17.60;86.30;;;;;;5034708;28;20096;-77
2022/04/07 12:29:59;;;;;;;30.75;19.55;;;18.00;85.70;;;;;;5041813;28;20036;-77
2022/04/07 12:32:25;;;;;;;30.00;20.08;;;18.20;85.10;;;;;;5041003;28;20028;-76